METAR Data
IDs: Format: Raw Decoded Include TAF

Data at: 0006 UTC 25 Apr 2019

METAR for:KOLZ (Oelwein Muni, IA, US)
Text:KOLZ 242355Z AUTO 22008G14KT 10SM CLR 16/10 A2982 RMK AO2 PWINO
Temperature: 16.0°C ( 61°F)
Dewpoint: 10.0°C ( 50°F) [RH = 68%]
Pressure (altimeter):29.82 inches Hg (1009.9 mb)
Winds:from the SW (220 degrees) at 9 MPH (8 knots; 4.1 m/s) gusting to 16 MPH (14 knots; 7.2 m/s)
Visibility:10 or more sm (16+ km)
Ceiling:at least 12,000 feet AGL
Clouds:sky clear below 12,000 feet AGL
QC Flag:automated observation with no human augmentation